Date,TemperatureHighF,TemperatureAvgF,TemperatureLowF,DewpointHighF,DewpointAvgF,DewpointLowF,HumidityHigh,HumidityAvg,HumidityLow,PressureMaxIn,PressureMinIn,WindSpeedMaxMPH,WindSpeedAvgMPH,GustSpeedMaxMPH,PrecipitationSumIn
2013-1-1,89,60,45,62,51,45,98,77,31,18.46,18.46,14,2,14,0.00
2013-1-2,80,64,53,67,59,52,98,86,61,17.72,17.72,13,2,13,0.00
2013-1-3,63,58,49,62,56,48,98,96,88,17.72,17.72,11,1,11,0.16
2013-1-4,67,53,45,53,48,43,98,85,60,17.72,17.72,12,2,12,0.00
2013-1-5,83,55,40,51,45,39,98,72,32,17.72,17.72,11,2,11,0.00
2013-1-6,68,58,54,55,52,48,97,80,63,17.72,17.72,10,2,10,0.04
2013-1-7,74,55,47,54,47,41,98,74,43,17.72,17.72,14,4,14,0.00
2013-1-8,67,60,54,61,56,49,95,86,77,17.72,17.72,12,3,12,0.00
2013-1-9,78,68,62,71,66,61,98,93,66,17.72,17.72,10,2,10,0.00
2013-1-10,68,67,66,67,67,65,98,98,95,17.72,17.72,6,1,6,0.00
2013-1-11,70,68,63,67,65,58,98,93,67,17.72,17.72,10,2,10,0.00
2013-1-12,101,72,60,66,57,52,87,64,27,17.72,17.72,4,1,4,0.00
2013-1-13,98,70,60,69,58,53,91,69,29,17.72,17.72,9,1,9,0.00
2013-1-14,87,68,57,68,58,54,98,76,34,17.72,17.72,14,2,14,0.00
2013-1-15,86,69,58,67,59,55,98,75,39,17.72,17.72,12,1,12,0.00
2013-1-16,88,68,0,67,59,53,98,75,36,17.72,17.72,12,1,12,0.00
2013-1-17,72,57,42,67,50,29,98,78,46,17.72,17.72,20,4,20,0.00
2013-1-18,65,50,40,42,36,29,73,61,42,17.72,17.72,21,6,21,0.00
2013-1-19,74,58,46,54,47,38,91,70,44,17.72,17.72,15,4,15,0.00
2013-1-20,83,62,50,54,49,43,94,68,29,17.72,17.72,10,1,10,0.00
2013-1-21,74,58,49,50,46,39,97,67,36,17.72,17.72,12,1,12,0.00
2013-1-22,69,53,43,40,31,25,67,46,24,17.72,17.72,13,2,13,0.00
2013-1-23,75,50,34,35,28,23,73,47,23,17.72,17.72,12,1,12,0.00
2013-1-24,81,56,40,49,43,34,96,64,30,17.72,17.72,17,2,17,0.00
2013-1-25,79,61,52,54,47,41,91,63,28,17.72,17.72,10,2,12,0.00
2013-1-26,81,61,48,60,51,45,97,74,39,17.72,17.72,14,1,14,0.00
2013-1-27,77,63,54,60,54,51,98,76,49,17.72,17.72,14,3,14,0.00
2013-1-28,82,67,56,62,56,53,98,71,40,17.72,17.72,14,2,14,0.00
2013-1-29,86,70,58,67,60,55,98,75,38,17.72,17.72,12,2,12,0.00
2013-1-30,90,74,60,65,60,53,96,66,33,17.72,17.72,24,6,24,0.12
2013-1-31,75,53,41,54,34,14,91,54,13,17.72,17.72,17,3,19,0.08
2013-2-1,74,52,39,32,27,18,62,42,14,17.72,17.72,17,2,17,0.00
2013-2-2,83,51,35,36,26,15,76,40,15,17.72,17.72,9,2,9,0.00
2013-2-3,82,53,39,43,27,7,84,45,7,17.72,17.72,14,2,14,0.00
2013-2-4,68,51,36,45,33,28,93,57,24,17.72,17.72,9,0,9,0.00
2013-2-5,72,56,39,50,41,34,94,61,30,17.72,17.72,8,0,8,0.00
2013-2-6,69,61,56,60,54,46,94,79,63,17.72,17.72,7,0,7,0.00
2013-2-7,79,65,59,68,61,55,98,89,46,17.72,17.72,19,2,19,0.28
2013-2-8,87,64,53,64,54,49,95,73,31,17.72,17.72,15,3,15,0.00
2013-2-9,85,58,48,51,45,39,96,66,24,17.72,17.72,13,3,13,0.00
2013-2-10,86,64,51,54,50,43,87,64,31,17.72,17.72,17,4,17,0.00
2013-2-11,86,69,56,62,56,53,95,68,35,17.72,17.72,22,2,22,0.00
2013-2-12,92,71,62,67,63,56,98,79,31,17.72,17.72,15,3,15,0.00
2013-2-13,78,70,61,70,64,51,91,81,67,17.72,17.72,19,4,19,0.08
2013-2-14,62,54,47,53,48,45,93,79,66,17.72,17.72,11,2,11,0.00
2013-2-15,87,54,41,44,39,32,92,64,16,17.72,17.72,10,2,10,0.04
2013-2-16,73,50,41,44,36,16,92,62,23,17.72,17.72,19,3,19,0.00
2013-2-17,75,43,31,17,12,-2,51,33,6,17.72,17.72,20,3,20,0.00
2013-2-18,86,48,26,37,26,12,86,49,8,17.72,17.72,13,2,13,0.00
2013-2-19,86,60,40,57,46,35,96,65,30,17.72,17.72,23,3,23,0.00
2013-2-20,72,58,47,58,38,27,91,51,24,17.72,17.72,11,2,11,0.00
2013-2-21,86,60,43,51,45,38,92,61,31,17.72,17.72,12,1,12,0.00
2013-2-22,100,71,57,66,58,49,98,69,24,17.72,17.72,14,2,14,0.28
2013-2-23,93,71,62,70,63,56,98,80,38,17.72,17.72,17,3,17,0.24
2013-2-24,72,64,58,64,60,54,98,88,61,17.72,17.72,8,1,8,0.04
2013-2-25,74,63,58,63,60,54,98,90,69,17.72,17.72,16,2,16,0.20
2013-2-26,79,67,58,70,60,47,98,82,35,17.72,17.72,21,5,21,0.67
2013-2-27,79,60,52,55,44,36,89,60,27,17.72,17.72,12,3,12,0.00
2013-2-28,87,59,46,46,39,17,88,53,8,17.72,17.72,19,4,19,0.00
2013-3-1,66,53,48,43,32,26,75,45,26,17.72,17.72,13,3,13,0.00
2013-3-2,73,48,36,34,26,14,79,46,14,17.72,17.72,22,4,22,0.00
2013-3-3,66,41,32,29,24,19,77,53,23,17.72,17.72,16,3,16,0.00
2013-3-4,84,48,30,33,24,11,79,47,9,17.72,17.72,10,1,10,0.00
2013-3-5,66,15,0,55,12,0,89,22,51,17.72,17.72,17,4,17,0.00
2013-3-6,79,55,0,58,30,14,79,42,10,30.03,17.72,22,5,22,0.00
2013-3-7,85,51,37,36,29,25,73,47,14,30.12,30.00,11,2,11,0.00
2013-3-8,71,49,36,44,37,24,94,69,17,30.12,30.00,14,1,14,0.00
2013-3-9,77,57,40,52,42,37,98,64,28,30.15,30.03,15,2,15,0.00
2013-3-10,93,65,50,56,48,44,97,61,21,30.09,29.97,21,3,21,0.00
2013-3-11,79,65,50,58,52,48,98,66,36,30.00,29.77,17,2,17,0.00
2013-3-12,71,64,52,67,56,43,98,76,51,29.91,29.71,15,4,15,0.12
2013-3-13,86,59,47,43,31,15,78,43,8,30.06,29.91,15,4,15,0.00
2013-3-14,76,52,0,29,25,19,63,35,13,30.18,30.03,15,3,15,0.00
2013-3-15,82,54,0,40,31,25,90,48,17,30.15,30.00,11,1,11,0.00
2013-3-16,86,62,42,51,38,33,94,49,16,30.06,29.88,15,2,15,0.00
2013-3-17,80,60,42,56,43,35,91,59,21,30.03,29.88,13,1,13,0.00
2013-3-18,81,67,57,63,58,55,98,75,42,29.94,29.74,13,1,13,0.04
2013-3-19,92,69,59,64,58,51,98,71,29,29.91,29.77,17,2,22,0.24
2013-3-20,75,63,52,59,52,47,95,71,38,29.88,29.71,16,2,16,0.04
2013-3-21,84,54,40,53,32,7,98,54,6,29.85,29.74,14,2,15,0.04
2013-3-22,74,57,44,43,36,28,77,48,24,29.91,29.80,13,3,14,0.00
2013-3-23,67,60,51,66,57,43,98,91,66,29.88,29.65,19,1,19,1.26
2013-3-24,72,66,62,71,66,62,98,98,90,29.71,29.50,17,5,17,0.04
2013-3-25,78,60,0,34,23,6,51,26,8,29.91,29.71,23,5,23,0.00
2013-3-26,70,49,37,28,23,14,62,38,15,30.12,29.91,21,3,21,0.00
2013-3-27,75,49,37,32,26,23,68,45,17,30.18,30.09,13,3,13,0.00
2013-3-28,79,54,36,35,28,14,78,45,10,30.18,30.06,11,2,13,0.00
2013-3-29,84,57,39,46,33,17,94,49,10,30.21,30.06,11,1,11,0.00
2013-3-30,87,61,42,46,38,34,88,48,18,30.15,29.97,15,2,15,0.00
2013-3-31,86,66,50,54,46,37,85,52,27,30.03,29.85,16,3,16,0.00
2013-4-1,87,70,58,61,55,50,93,64,31,29.88,29.80,21,4,21,0.00
2013-4-2,89,68,52,55,46,36,95,53,18,29.97,29.85,16,2,16,0.00
2013-4-3,83,65,54,63,56,48,98,75,35,29.97,29.88,13,2,13,0.63
2013-4-4,76,69,63,70,63,59,98,84,61,29.91,29.74,15,4,15,0.04
2013-4-5,67,61,54,64,57,48,97,87,75,29.91,29.65,13,2,13,0.00
2013-4-6,78,61,48,52,49,45,93,68,36,30.03,29.88,13,3,13,0.00
2013-4-7,83,66,54,65,53,48,98,68,33,30.06,29.94,11,2,11,0.00
2013-4-8,92,69,55,65,54,43,98,64,21,30.03,29.91,15,2,15,0.00
2013-4-9,90,71,57,67,56,51,98,66,30,30.06,29.94,15,3,15,0.00
2013-4-10,90,71,56,64,57,51,98,67,28,30.03,29.85,14,3,14,0.00
2013-4-11,94,76,67,71,65,55,98,75,30,29.88,29.68,15,2,15,0.08
2013-4-12,87,76,71,71,66,59,97,75,44,29.77,29.65,22,4,22,0.00
2013-4-13,91,73,61,65,49,32,84,48,15,29.88,29.74,10,2,10,0.00
2013-4-14,80,66,58,65,59,52,98,79,46,29.85,29.74,13,2,13,1.02
2013-4-15,91,72,59,68,61,58,98,73,36,29.97,29.71,15,1,15,0.00
2013-4-16,89,73,63,66,62,58,97,72,39,30.03,29.94,13,2,13,0.00
2013-4-17,86,72,64,68,62,56,98,75,39,30.03,29.94,13,2,13,0.00
2013-4-18,93,75,65,70,61,51,98,68,27,29.97,29.80,14,2,14,0.00
2013-4-19,89,76,68,73,67,62,98,77,44,29.88,29.74,19,4,19,0.87
2013-4-20,74,56,51,67,52,47,94,88,67,30.06,29.85,15,3,15,0.67
2013-4-21,70,61,50,63,56,49,98,85,65,30.06,29.97,17,4,17,0.12
2013-4-22,66,62,56,63,59,52,98,88,76,30.00,29.91,17,4,17,0.20
2013-4-23,83,65,55,59,53,47,98,70,32,30.00,29.91,16,2,16,0.00
2013-4-24,90,69,53,64,53,42,98,64,20,30.03,29.94,11,2,11,0.00
2013-4-25,90,73,59,65,58,52,96,64,29,30.06,29.97,11,1,11,0.00
2013-4-26,86,73,63,64,57,49,87,61,38,30.15,30.03,15,3,15,0.00
2013-4-27,88,71,59,62,55,47,94,62,29,30.12,30.00,13,2,13,0.00
2013-4-28,85,71,61,68,59,54,98,69,42,30.03,29.85,15,3,15,0.00
2013-4-29,89,71,63,66,60,51,96,72,31,29.88,29.80,13,2,13,0.00
2013-4-30,91,71,63,70,64,56,98,80,34,29.91,29.80,13,1,13,0.00
2013-5-1,77,69,65,67,63,60,98,83,62,29.91,29.83,16,4,16,0.00
2013-5-2,74,68,66,69,65,60,98,90,74,29.88,29.71,21,4,21,2.09
2013-5-3,68,66,64,68,65,60,98,97,86,29.74,29.65,17,5,17,4.37
2013-5-4,70,67,64,69,66,62,98,97,92,29.68,29.56,14,3,14,0.83
2013-5-5,82,67,58,67,53,41,98,68,25,29.77,29.59,17,3,17,0.00
2013-5-6,79,64,54,56,45,36,86,54,24,29.85,29.71,15,3,15,0.00
2013-5-7,81,65,53,55,50,44,89,62,32,29.88,29.77,17,4,17,0.00
2013-5-8,86,69,56,61,53,48,96,62,29,29.97,29.85,13,2,13,0.00
2013-5-9,91,72,59,66,56,47,97,62,25,30.00,29.91,10,1,10,0.00
2013-5-10,93,74,59,64,56,44,93,59,23,30.00,29.85,14,2,14,0.00
2013-5-11,90,72,63,71,63,58,92,75,39,29.91,29.80,19,2,19,0.12
2013-5-12,90,74,66,70,63,56,98,72,35,29.91,29.80,13,2,13,0.04
2013-5-13,84,69,57,62,44,33,87,45,19,30.00,29.85,14,3,14,0.00
2013-5-14,87,67,52,47,34,17,67,36,8,30.09,30.00,11,2,11,0.00
2013-5-15,91,70,53,60,48,40,92,53,19,30.09,29.94,11,2,11,0.00
2013-5-16,90,73,59,62,56,52,89,58,30,30.00,29.88,10,2,10,0.00
2013-5-17,92,75,62,63,58,50,90,59,26,29.97,29.91,11,2,11,0.00
2013-5-18,94,77,65,68,62,55,93,63,29,30.00,29.85,13,2,13,0.04
2013-5-20,90,78,68,72,68,63,94,73,47,29.97,29.85,16,2,16,0.08
2013-5-21,85,71,66,73,68,63,98,90,51,29.91,29.83,8,1,12,0.51
2013-5-22,86,72,66,75,68,63,98,87,50,29.85,29.77,10,1,10,0.83
2013-5-23,95,78,67,73,66,57,98,72,32,29.85,29.74,12,2,12,0.00
2013-5-24,93,78,68,72,60,49,98,61,27,29.97,29.83,15,2,15,0.00
2013-5-25,88,73,62,59,52,46,83,53,25,30.09,29.94,14,2,14,0.00
2013-5-26,89,71,57,62,53,45,92,57,24,30.09,30.00,12,2,12,0.00
2013-5-27,90,72,58,64,57,52,93,62,29,30.06,29.97,12,2,12,0.00
2013-5-28,90,74,62,65,61,58,93,66,40,30.03,29.97,13,3,13,0.00
2013-5-29,91,77,67,72,66,63,98,72,41,30.03,29.94,15,3,15,0.00
2013-5-30,90,78,70,72,67,61,98,71,40,30.03,29.94,15,3,15,0.00
2013-5-31,88,77,68,70,66,60,96,71,45,30.00,29.94,15,3,15,0.00
2013-6-1,90,78,69,72,67,63,97,73,43,29.97,29.85,13,3,13,0.00
2013-6-2,91,78,72,78,72,68,98,83,53,29.91,29.74,15,2,15,0.55
2013-6-3,92,77,71,78,72,66,98,86,46,29.83,29.74,14,1,14,1.30
2013-6-4,86,76,71,79,72,68,98,88,60,29.88,29.80,9,1,13,0.04
2013-6-5,85,74,71,72,70,68,98,89,60,29.88,29.80,12,0,12,0.43
2013-6-6,76,73,70,76,72,70,98,97,90,29.80,29.41,23,5,23,1.61
2013-6-7,88,77,69,76,70,66,98,80,51,29.80,29.50,15,4,22,0.24
2013-6-8,94,80,68,76,70,62,98,75,39,29.94,29.80,23,2,23,1.10
2013-6-13,0,0,0,0,0,0,0,0,100,29.80,29.74,15,4,15,0.00
2013-6-15,88,81,72,69,64,60,77,58,44,29.94,29.88,13,4,13,0.04
2013-6-16,92,80,72,72,69,65,87,71,47,29.97,29.88,10,3,10,0.00
2013-6-17,96,84,74,74,70,64,95,64,36,29.94,29.83,10,2,10,0.00
2013-6-18,96,81,71,75,68,60,97,68,34,29.91,29.80,16,2,16,0.00
2013-6-19,96,82,72,74,68,60,94,66,35,29.91,29.80,12,2,12,0.00
2013-6-20,94,79,72,75,70,61,94,76,35,29.94,29.85,13,2,13,0.04
2013-6-21,89,77,71,74,70,63,97,81,51,30.00,29.91,15,2,15,0.08
2013-6-22,90,76,69,76,70,66,100,84,47,30.00,29.94,17,2,17,0.04
2013-6-23,95,81,71,76,69,60,100,72,33,30.03,29.91,13,2,13,0.00
2013-6-24,97,82,72,75,68,60,96,68,32,30.06,29.94,12,2,13,0.00
2013-6-25,96,81,72,74,69,60,95,70,32,30.03,29.88,9,1,9,0.04
2013-6-26,86,74,0,76,70,66,96,84,53,29.94,29.85,16,1,16,0.35
2013-6-27,94,79,69,76,71,65,100,79,43,29.91,29.77,17,1,17,0.08
2013-6-28,90,80,75,75,71,61,95,77,48,29.83,29.68,20,2,20,0.00
2013-6-29,87,78,75,74,71,67,91,79,58,29.71,29.62,13,2,13,0.04
2013-6-30,91,77,73,77,72,66,97,86,48,29.74,29.65,18,2,18,0.63
2013-7-1,84,74,71,74,72,67,100,92,67,29.88,29.68,15,2,15,1.85
2013-7-2,89,75,71,77,73,68,100,93,58,29.97,29.83,27,3,27,0.04
2013-7-3,90,78,71,80,73,70,100,88,57,30.00,29.91,14,2,14,0.00
2013-7-4,90,78,72,75,72,65,100,84,45,30.03,29.94,17,3,17,0.00
2013-7-5,89,77,71,79,73,67,100,88,59,30.03,29.94,19,2,19,0.00
2013-7-6,91,79,72,76,72,67,100,79,47,30.00,29.91,14,3,15,0.00
2013-7-7,92,81,72,75,70,64,96,72,43,30.00,29.91,17,3,17,0.00
2013-7-8,93,81,72,76,70,64,100,73,40,30.03,29.94,12,2,12,0.00
2013-7-9,95,81,72,75,68,62,97,69,36,30.03,29.91,11,2,11,0.00
2013-7-10,95,80,71,75,68,61,97,71,36,29.97,29.83,9,1,9,0.00
2013-7-11,95,79,72,76,70,62,100,78,41,29.88,29.74,12,2,14,0.00
2013-7-12,90,78,72,74,71,66,100,81,47,29.83,29.77,16,2,16,0.00
2013-7-13,87,74,70,76,71,68,100,91,63,29.85,29.77,17,2,17,0.00
2013-7-14,84,75,70,76,71,68,100,89,68,29.97,29.85,13,2,13,0.00
2013-7-15,83,76,72,76,72,70,100,89,74,30.03,29.94,11,2,11,0.00
2013-7-16,91,79,72,77,71,65,100,79,45,30.06,29.97,15,3,16,0.00
2013-7-17,93,80,73,78,70,61,100,73,38,30.06,29.94,14,2,14,0.00
2013-7-18,93,79,72,76,70,64,97,76,42,30.00,29.88,10,2,10,0.00
2013-7-19,89,76,71,72,70,64,100,82,44,29.97,29.91,15,2,15,0.00
2013-7-20,86,76,71,76,71,68,100,88,66,29.97,29.88,13,2,13,6.50
2013-7-21,88,76,71,76,73,69,100,89,58,29.97,29.88,13,1,13,0.20
2013-7-22,88,76,72,79,74,68,100,94,60,30.00,29.88,13,1,13,0.91
2013-7-23,87,75,72,77,73,70,100,94,68,29.91,29.80,13,2,18,0.39
2013-7-24,86,76,71,76,73,69,100,91,68,29.83,29.71,13,2,13,0.20
2013-7-25,90,79,72,75,72,68,100,81,54,29.83,29.71,14,2,15,0.00
2013-7-26,93,80,73,78,72,66,100,78,43,29.88,29.80,9,1,11,0.08
2013-7-27,95,82,74,77,71,62,97,73,39,29.85,29.74,10,1,10,0.00
2013-7-28,91,79,0,74,70,66,96,75,49,29.91,29.80,11,2,13,0.00
2013-7-29,97,81,70,75,69,61,97,71,33,30.00,29.88,8,1,9,0.12
2013-7-30,93,80,74,78,73,66,100,83,47,30.03,29.94,8,1,8,0.04
2013-7-31,91,77,71,77,72,68,100,87,53,30.00,29.88,16,1,16,1.85
2013-8-1,90,76,71,79,72,68,100,89,56,29.91,29.83,13,1,13,0.00
2013-8-2,92,79,70,76,71,67,100,79,46,29.91,29.80,8,0,8,0.00
2013-8-3,91,81,73,77,72,68,100,78,50,29.94,29.83,15,1,15,0.00
2013-8-4,94,83,75,77,73,66,96,74,41,29.91,29.80,11,2,11,0.00
2013-8-5,97,83,72,78,72,65,96,75,39,29.88,29.74,30,2,30,0.00
2013-8-6,92,79,72,80,74,67,100,85,50,29.85,29.77,16,1,16,0.00
2013-8-7,89,80,75,79,74,70,100,83,57,29.85,29.80,13,2,13,0.00
2013-8-8,94,81,75,78,73,66,100,80,42,29.91,29.83,11,2,11,0.00
2013-8-9,93,80,73,79,73,67,100,81,44,29.94,29.85,15,2,15,0.00
2013-8-10,93,79,0,75,72,66,97,80,45,30.00,29.91,15,2,15,0.00
2013-8-11,99,87,76,75,68,62,95,57,31,30.00,29.91,9,3,10,0.00
2013-8-12,100,82,73,77,71,65,95,73,33,30.00,29.85,12,1,12,0.00
2013-8-13,98,82,73,77,72,67,100,75,39,29.91,29.77,10,2,10,0.00
2013-8-14,98,82,74,78,71,64,96,72,37,29.88,29.74,14,2,14,0.00
2013-8-15,97,79,0,74,70,64,96,75,37,29.91,29.77,15,2,15,0.00
2013-8-16,91,78,73,75,72,65,95,81,46,29.91,29.83,13,1,13,0.00
2013-8-17,93,80,73,76,73,68,97,81,48,29.97,29.85,17,2,17,0.00
2013-8-18,89,78,72,81,74,70,100,89,64,29.97,29.88,17,1,17,0.00
2013-8-19,93,80,74,79,73,67,100,82,47,29.97,29.85,12,1,12,0.00
2013-8-20,93,80,72,80,72,68,100,80,46,30.00,29.88,13,1,13,0.00
2013-8-21,91,79,73,79,74,69,100,86,52,30.03,29.94,12,1,12,0.00
2013-8-22,83,77,74,78,73,69,97,89,71,30.00,29.88,17,1,17,0.00
2013-8-23,84,75,72,79,74,70,100,96,72,29.91,29.85,10,1,10,0.00
2013-8-24,87,77,72,79,74,72,100,90,67,30.00,29.88,13,2,13,0.00
2013-8-25,83,76,73,76,72,69,100,89,69,30.06,29.97,14,2,14,0.00
2013-8-26,90,78,70,75,70,66,100,79,47,30.03,29.91,12,3,12,0.00
2013-8-27,88,78,71,74,68,62,100,75,45,29.97,29.85,9,2,9,0.00
2013-8-28,95,79,68,72,66,59,97,68,31,29.91,29.83,10,1,10,0.00
2013-8-29,93,80,70,73,67,61,95,69,37,29.88,29.77,12,1,12,0.00
2013-8-30,98,81,72,77,69,59,100,71,31,29.83,29.71,10,1,10,0.00
2013-8-31,94,78,71,78,71,63,100,82,43,29.83,29.74,19,1,19,0.00
2013-9-1,97,80,71,77,69,62,100,73,34,29.83,29.74,11,2,11,0.00
2013-9-2,97,80,70,75,69,64,96,73,36,29.85,29.74,15,2,15,0.00
2013-9-3,90,79,72,77,72,69,100,82,52,29.85,29.77,11,1,11,0.00
2013-9-4,100,81,72,79,70,62,100,73,31,29.94,29.83,16,1,16,0.00
2013-9-5,99,82,72,74,68,62,96,68,31,29.97,29.85,8,1,8,0.00
2013-9-6,94,77,71,74,69,62,96,80,43,29.91,29.83,17,1,17,0.00
2013-9-7,95,78,68,75,67,58,100,73,33,29.88,29.80,13,2,13,0.00
2013-9-8,96,79,69,75,65,55,100,68,27,29.85,29.77,11,1,11,0.00
2013-9-9,95,78,68,72,64,56,97,67,29,29.91,29.83,13,1,13,0.00
2013-9-10,94,79,68,72,65,56,96,66,29,29.97,29.88,15,2,15,0.00
2013-9-11,94,79,71,71,67,62,91,70,38,29.97,29.88,15,2,15,0.00
2013-9-12,94,78,70,78,70,65,100,78,44,29.91,29.74,9,1,9,0.00
2013-9-13,98,80,70,74,66,57,97,68,28,29.77,29.62,13,1,13,0.00
2013-9-14,100,81,70,72,66,59,96,65,29,29.85,29.68,10,1,10,0.00
2013-9-15,97,81,72,76,69,63,96,70,36,29.94,29.83,14,2,14,3.35
2013-9-16,98,82,72,75,68,58,97,69,29,29.94,29.83,12,2,12,0.00
2013-9-17,97,80,71,77,69,62,100,74,36,29.94,29.85,16,2,16,0.00
2013-9-18,88,76,70,72,68,61,92,77,44,29.94,29.85,17,3,17,0.00
2013-9-19,91,76,69,73,69,63,100,81,42,29.94,29.85,15,2,15,0.16
2013-9-20,99,76,67,74,66,61,100,76,33,29.91,29.77,10,1,10,0.00
2013-9-21,98,78,67,73,65,57,100,68,29,29.80,29.62,9,1,9,0.00
2013-9-22,82,75,72,73,70,67,97,87,68,29.71,29.59,12,1,12,0.20
2013-9-23,81,74,71,76,72,68,100,95,77,29.80,29.68,11,1,11,0.28
2013-9-24,85,75,73,78,74,73,100,96,72,29.80,29.68,8,0,8,0.24
2013-9-25,86,76,71,74,72,68,100,88,60,29.68,29.59,14,2,14,0.04
2013-9-26,88,76,70,77,70,64,100,82,52,29.77,29.59,14,2,14,0.00
2013-9-27,86,73,66,66,64,61,91,73,46,29.85,29.74,21,3,21,0.00
2013-9-28,78,72,68,70,66,60,97,82,63,29.91,29.80,14,3,14,0.04
2013-9-29,94,74,66,66,64,58,95,74,39,29.88,29.77,11,3,11,0.00
2013-9-30,87,74,67,69,64,60,96,73,45,29.88,29.80,13,2,13,0.00
2013-10-1,97,75,67,65,61,58,79,62,30,29.94,29.85,9,2,10,0.00
2013-10-2,99,74,64,64,60,54,94,67,27,29.94,29.88,12,2,12,0.00
2013-10-3,97,78,67,71,66,61,97,72,37,29.94,29.85,13,2,13,0.00
2013-10-4,106,78,68,76,67,57,100,72,24,29.94,29.85,10,1,10,0.00
2013-10-5,104,78,69,76,67,60,100,74,26,29.91,29.83,12,2,12,0.00
2013-10-6,104,79,69,77,68,61,100,74,30,29.85,29.71,11,2,11,0.00
2013-10-7,90,76,69,73,69,64,97,79,44,29.74,29.59,9,1,9,0.00
2013-10-8,86,74,67,72,68,62,91,81,55,29.85,29.62,15,4,15,0.00
2013-10-9,72,65,61,62,59,57,93,82,61,29.94,29.85,11,3,11,0.00
2013-10-10,103,72,59,68,57,46,100,68,16,29.91,29.80,10,1,10,0.00
2013-10-11,96,71,60,70,56,49,100,65,26,29.88,29.80,11,1,11,0.00
2013-10-12,96,72,63,77,60,46,100,72,20,29.91,29.80,11,1,11,0.00
2013-10-13,96,72,59,68,58,48,100,70,23,29.94,29.85,14,2,14,0.08
2013-10-14,81,71,64,67,62,58,97,76,46,29.91,29.83,12,2,12,0.00
2013-10-15,73,69,67,67,64,62,91,84,68,29.88,29.80,15,4,15,0.16
2013-10-16,87,72,64,67,64,61,96,78,47,29.85,29.77,8,2,9,0.00
2013-10-17,102,76,64,74,64,57,100,72,26,29.85,29.74,9,1,9,0.00
2013-10-18,106,77,0,71,64,54,97,69,20,29.85,29.74,10,2,10,0.00
2013-10-19,91,76,68,72,68,62,97,79,42,29.80,29.71,11,1,11,0.24
2013-10-20,94,74,66,71,62,54,100,70,31,29.85,29.74,10,2,10,0.00
2013-10-21,90,71,0,68,65,59,95,80,46,29.85,29.77,10,2,10,0.00
2013-10-22,87,74,70,75,70,65,100,91,58,29.83,29.68,8,1,8,0.24
2013-10-23,95,69,56,71,55,31,100,69,11,29.88,29.68,14,3,14,0.00
2013-10-24,87,60,51,47,38,31,81,46,20,30.03,29.88,12,2,12,0.00
2013-10-25,94,63,48,53,43,31,92,56,12,30.12,30.00,14,2,14,0.00
2013-10-26,94,62,48,48,42,31,78,53,11,30.09,29.97,9,2,9,0.00
2013-10-27,95,62,47,56,42,6,95,59,4,30.03,29.94,9,1,9,0.00
2013-10-28,98,66,50,58,50,42,96,63,16,30.09,29.97,9,1,9,0.00
2013-10-29,92,69,58,61,55,50,93,67,28,30.12,30.06,15,3,15,0.00
2013-10-30,90,70,59,63,58,55,96,70,35,30.12,30.00,13,2,13,0.00
2013-10-31,88,74,64,68,60,52,94,67,32,30.03,29.85,13,2,13,0.00
2013-11-1,86,74,64,69,64,57,100,73,39,29.88,29.71,18,3,18,0.00
2013-11-2,82,66,56,72,62,50,100,87,40,29.83,29.65,11,2,11,1.73
2013-11-3,84,61,52,54,42,33,95,55,19,30.03,29.83,17,4,17,0.00
2013-11-4,78,63,54,60,51,42,89,64,43,30.09,30.03,23,6,23,0.00
2013-11-5,75,67,63,64,60,57,94,80,57,30.12,30.00,20,5,20,0.00
2013-11-6,80,70,64,68,63,59,100,81,53,30.03,29.91,10,3,10,0.00
2013-11-7,93,72,66,64,60,51,89,70,31,29.94,29.83,9,2,9,0.00
2013-11-8,73,62,51,58,43,34,71,52,37,30.03,29.88,17,5,17,0.00
2013-11-9,85,64,52,56,50,45,87,64,32,30.09,30.00,12,3,12,0.00
2013-11-10,89,66,58,66,57,51,100,75,31,30.09,29.97,10,2,10,0.00
2013-11-11,86,66,0,59,54,50,91,67,34,30.06,29.94,10,2,10,0.00
2013-11-12,80,67,61,63,55,40,97,70,40,30.00,29.88,17,2,17,0.00
2013-11-13,66,50,42,40,32,24,57,49,34,30.27,29.97,20,6,20,0.00
2013-11-14,75,55,41,53,41,24,90,62,40,30.21,30.09,14,4,14,0.00
2013-11-15,66,61,55,64,58,52,100,91,75,30.09,29.91,8,1,9,0.04
2013-11-16,74,66,60,71,63,60,100,92,69,30.03,29.94,10,1,10,0.04
2013-11-17,83,71,66,75,67,62,100,87,53,29.97,29.88,13,1,13,0.12
2013-11-18,79,71,65,74,68,64,100,92,74,29.88,29.77,12,1,12,0.00
2013-11-19,77,64,57,69,50,36,100,61,42,29.88,29.77,15,3,15,0.04
2013-11-20,72,63,56,61,57,50,93,81,67,30.03,29.88,13,4,13,0.00
2013-11-21,74,67,63,69,62,60,95,86,68,30.09,30.00,10,3,10,0.00
2013-11-22,80,69,62,70,62,59,100,82,56,30.09,29.97,13,2,13,0.00
2013-11-23,87,70,58,69,59,53,100,73,36,29.97,29.85,14,1,14,0.00
2013-11-24,68,57,45,56,41,32,72,56,33,30.15,29.91,20,5,20,0.00
2013-11-25,76,59,46,54,45,38,79,61,33,30.12,29.94,13,4,13,0.00
2013-11-26,75,68,60,72,64,54,100,89,77,29.94,29.56,15,4,15,1.85
2013-11-27,69,54,39,69,46,30,100,74,47,30.06,29.50,20,5,20,0.20
2013-11-28,70,46,31,39,30,21,71,57,33,30.24,30.03,14,4,14,0.00
2013-11-29,77,54,42,44,40,35,79,60,31,30.27,30.18,13,4,13,0.00
2013-11-30,69,57,52,54,49,43,91,75,53,30.21,30.06,16,4,16,0.00
2013-12-1,79,62,52,55,52,48,95,74,37,30.06,29.83,9,1,9,0.00
2013-12-2,82,61,52,56,51,42,95,73,30,29.83,29.65,11,0,11,0.00
2013-12-3,84,61,47,57,50,43,94,70,32,29.83,29.71,10,1,10,0.00
2013-12-4,88,66,55,65,56,52,96,74,34,29.94,29.80,10,1,10,0.00
2013-12-5,88,69,57,67,58,54,97,73,32,30.00,29.91,11,1,11,0.00
2013-12-6,91,71,62,71,60,55,100,73,33,30.00,29.91,15,2,15,0.00
2013-12-7,90,72,63,71,61,55,97,74,32,30.06,29.94,11,1,11,0.00
2013-12-8,85,70,0,69,60,54,97,75,37,30.06,29.91,12,2,12,0.00
2013-12-9,87,72,62,68,61,57,97,73,39,29.97,29.88,13,2,13,0.00
2013-12-10,84,68,54,70,61,42,100,80,47,30.03,29.85,17,3,17,0.16
2013-12-11,68,58,49,54,46,35,72,64,56,30.09,30.00,10,4,10,0.00
2013-12-12,74,56,41,48,28,1,72,41,6,30.15,30.03,15,3,15,0.00
2013-12-13,73,55,41,51,42,33,84,62,36,30.12,29.91,11,2,11,0.00
2013-12-14,76,65,54,68,60,49,100,85,60,29.91,29.71,22,2,22,1.14
2013-12-15,68,60,48,66,55,37,100,83,54,29.94,29.65,17,2,17,0.94
2013-12-16,69,48,38,38,34,28,84,62,26,30.03,29.91,10,2,10,0.00
2013-12-17,76,50,37,40,34,19,91,60,16,30.06,29.94,11,1,11,0.00
2013-12-18,74,50,39,37,28,8,83,51,9,30.06,29.94,15,2,15,0.00
2013-12-19,80,54,36,49,41,30,93,66,24,30.06,29.94,11,1,11,0.00
2013-12-20,83,62,47,60,50,45,95,70,31,29.97,29.88,13,1,13,0.00
2013-12-21,87,70,58,69,59,54,100,73,34,29.91,29.77,17,4,17,0.00
2013-12-22,85,72,65,73,65,60,100,81,46,29.88,29.80,15,3,15,0.00
2013-12-23,86,72,63,72,64,57,100,79,43,29.88,29.80,16,3,16,0.00
2013-12-24,72,56,42,57,36,19,82,51,17,30.03,29.85,17,4,17,0.00
2013-12-25,70,52,39,47,38,21,80,59,42,30.00,29.94,15,4,15,0.00
2013-12-26,71,56,50,47,44,42,85,67,38,29.97,29.88,11,3,11,0.00
2013-12-27,62,55,50,53,47,43,84,75,66,30.03,29.94,13,4,13,0.00
2013-12-28,71,63,55,67,58,46,100,82,68,29.97,29.71,13,3,13,0.00
2013-12-29,72,67,57,70,65,57,100,94,86,29.71,29.62,17,2,17,1.18
2013-12-30,70,57,48,57,46,37,100,71,33,29.88,29.71,13,1,13,0.00
2013-12-31,66,56,51,51,44,37,90,64,36,30.00,29.88,8,0,8,0.00
2014-1-1,58,55,51,58,52,44,100,90,74,30.00,29.77,8,0,8,0.59
2014-1-2,64,60,51,64,59,40,100,98,63,29.77,29.47,17,1,17,1.10